createdAt,value
2018-02-06T00:00:11.128Z,73.33
2018-02-06T00:01:17.780Z,73.35
2018-02-06T00:02:23.487Z,73.29
2018-02-06T00:03:29.188Z,73.36
2018-02-06T00:04:34.890Z,73.47
2018-02-06T00:05:41.389Z,73.44
2018-02-06T00:06:47.083Z,73.39
2018-02-06T00:07:53.561Z,73.41
2018-02-06T00:08:59.425Z,73.55
2018-02-06T00:10:05.138Z,73.80
2018-02-06T00:11:11.625Z,73.73
2018-02-06T00:12:17.328Z,73.75
2018-02-06T00:13:23.808Z,73.76
2018-02-06T00:14:29.520Z,73.68
2018-02-06T00:15:35.992Z,73.72
2018-02-06T00:16:42.499Z,73.74
2018-02-06T00:17:48.207Z,73.69
2018-02-06T00:18:53.912Z,73.63
2018-02-06T00:20:00.384Z,73.69
2018-02-06T00:21:06.854Z,73.75
2018-02-06T00:22:16.050Z,73.72
2018-02-06T00:23:21.752Z,73.85
2018-02-06T00:24:27.463Z,73.96
2018-02-06T00:25:33.179Z,73.90
2018-02-06T00:26:40.020Z,73.94
2018-02-06T00:27:45.739Z,73.86
2018-02-06T00:28:51.460Z,73.90
2018-02-06T00:29:57.221Z,73.97
2018-02-06T00:31:03.862Z,73.85
2018-02-06T00:32:09.573Z,73.91
2018-02-06T00:33:16.083Z,73.83
2018-02-06T00:34:21.789Z,73.82
2018-02-06T00:35:27.489Z,73.83
2018-02-06T00:36:33.201Z,73.87
2018-02-06T00:37:38.924Z,73.94
2018-02-06T00:38:44.643Z,73.86
2018-02-06T00:39:51.119Z,73.86
2018-02-06T00:40:56.832Z,73.87
2018-02-06T00:42:03.316Z,73.90
2018-02-06T00:43:09.024Z,73.89
2018-02-06T00:44:14.770Z,73.97
2018-02-06T00:45:21.235Z,74.10
2018-02-06T00:46:27.711Z,74.06
2018-02-06T00:47:33.423Z,74.08
2018-02-06T00:48:39.884Z,74.12
2018-02-06T00:49:45.616Z,74.19
2018-02-06T00:50:51.327Z,74.33
2018-02-06T00:51:57.056Z,74.31
2018-02-06T00:53:02.748Z,74.26
2018-02-06T00:54:09.229Z,74.36
2018-02-06T00:55:14.965Z,74.33
2018-02-06T00:56:20.677Z,74.46
2018-02-06T00:57:26.396Z,74.55
2018-02-06T00:58:32.107Z,74.52
2018-02-06T00:59:37.811Z,74.56
2018-02-06T01:00:44.300Z,74.59
2018-02-06T01:01:50.008Z,74.67
2018-02-06T01:02:55.707Z,74.77
2018-02-06T01:04:01.481Z,74.71
2018-02-06T01:05:07.187Z,74.88
2018-02-06T01:06:12.920Z,74.92
2018-02-06T01:07:18.628Z,74.93
2018-02-06T01:08:24.344Z,75.18
2018-02-06T01:09:30.065Z,75.21
2018-02-06T01:10:35.780Z,75.30
2018-02-06T01:11:41.512Z,75.48
2018-02-06T01:12:47.224Z,75.58
2018-02-06T01:13:53.693Z,75.65
2018-02-06T01:14:59.400Z,75.82
2018-02-06T01:16:05.108Z,75.83
2018-02-06T01:17:11.052Z,75.76
2018-02-06T01:18:16.769Z,75.71
2018-02-06T01:19:22.476Z,75.63
2018-02-06T01:20:28.956Z,75.61
2018-02-06T01:21:34.651Z,75.62
2018-02-06T01:22:41.167Z,75.65
2018-02-06T01:23:47.132Z,75.80
2018-02-06T01:24:52.855Z,75.96
2018-02-06T01:25:58.303Z,75.80
2018-02-06T01:27:04.019Z,75.69
2018-02-06T01:28:09.797Z,75.74
2018-02-06T01:29:15.515Z,75.58
2018-02-06T01:30:21.216Z,75.45
2018-02-06T01:31:27.702Z,75.40
2018-02-06T01:32:33.408Z,75.59
2018-02-06T01:33:39.142Z,75.51
2018-02-06T01:34:44.851Z,75.48
2018-02-06T01:35:50.577Z,75.34
2018-02-06T01:36:56.295Z,75.22
2018-02-06T01:38:02.755Z,75.25
2018-02-06T01:39:08.488Z,75.39
2018-02-06T01:40:14.964Z,75.43
2018-02-06T01:41:20.669Z,75.48
2018-02-06T01:42:27.142Z,75.48
2018-02-06T01:43:33.615Z,75.44
2018-02-06T01:44:39.559Z,75.61
2018-02-06T01:45:45.271Z,75.65
2018-02-06T01:46:51.752Z,75.73
2018-02-06T01:47:58.400Z,75.64
2018-02-06T01:49:04.313Z,75.84
2018-02-06T01:50:10.056Z,75.94
2018-02-06T01:51:15.771Z,76.02
2018-02-06T01:52:21.469Z,75.90
2018-02-06T01:53:27.949Z,75.85
2018-02-06T01:54:33.660Z,76.09
2018-02-06T01:55:39.391Z,76.13
2018-02-06T01:56:45.105Z,75.97
2018-02-06T01:57:50.819Z,76.04
2018-02-06T01:58:56.532Z,75.91
2018-02-06T02:00:03.020Z,76.04
2018-02-06T02:01:08.792Z,76.01
2018-02-06T02:02:14.514Z,75.85
2018-02-06T02:03:20.224Z,75.88
2018-02-06T02:04:26.702Z,75.93
2018-02-06T02:05:32.419Z,75.93
2018-02-06T02:06:38.924Z,76.03
2018-02-06T02:07:44.625Z,76.08
2018-02-06T02:08:51.107Z,76.28
2018-02-06T02:09:56.829Z,76.38
2018-02-06T02:11:02.535Z,76.43
2018-02-06T02:12:08.272Z,76.37
2018-02-06T02:13:13.987Z,76.31
2018-02-06T02:14:19.695Z,76.50
2018-02-06T02:15:25.410Z,76.64
2018-02-06T02:16:31.894Z,76.60
2018-02-06T02:17:37.630Z,76.66
2018-02-06T02:18:43.335Z,76.66
2018-02-06T02:19:49.050Z,76.66
2018-02-06T02:20:54.762Z,76.63
2018-02-06T02:22:00.472Z,76.84
2018-02-06T02:23:06.207Z,76.63
2018-02-06T02:24:11.928Z,76.73
2018-02-06T02:25:17.692Z,76.60
2018-02-06T02:26:24.188Z,76.63
2018-02-06T02:27:29.880Z,76.72
2018-02-06T02:28:35.628Z,76.62
2018-02-06T02:29:41.348Z,76.65
2018-02-06T02:30:47.052Z,76.58
2018-02-06T02:31:52.768Z,76.65
2018-02-06T02:32:59.244Z,76.77
2018-02-06T02:34:04.979Z,76.61
2018-02-06T02:35:10.696Z,76.58
2018-02-06T02:36:17.175Z,76.61
2018-02-06T02:37:22.885Z,76.79
2018-02-06T02:38:28.612Z,76.79
2018-02-06T02:39:34.354Z,76.66
2018-02-06T02:40:40.069Z,76.60
2018-02-06T04:39:22.297Z,78.83
2018-02-06T04:40:28.042Z,78.84
2018-02-06T04:41:33.759Z,78.92
2018-02-06T04:42:40.336Z,78.90
2018-02-06T04:43:46.054Z,78.97
2018-02-06T04:44:52.749Z,78.94
2018-02-06T04:45:58.495Z,78.89
2018-02-06T04:47:04.199Z,78.86
2018-02-06T04:48:10.669Z,78.89
2018-02-06T04:49:16.396Z,78.94
2018-02-06T04:50:22.884Z,78.87
2018-02-06T04:51:28.631Z,78.92
2018-02-06T04:52:34.355Z,79.12
2018-02-06T04:53:40.084Z,79.13
2018-02-06T04:54:46.563Z,79.29
2018-02-06T04:55:52.291Z,79.24
2018-02-06T04:56:58.367Z,79.30
2018-02-06T04:58:04.848Z,79.27
2018-02-06T04:59:10.572Z,79.15
2018-02-06T05:00:16.299Z,79.08
2018-02-06T05:01:22.018Z,79.21
2018-02-06T05:02:28.531Z,79.22
2018-02-06T05:03:34.254Z,79.31
2018-02-06T05:04:39.977Z,79.37
2018-02-06T05:05:45.695Z,79.36
2018-02-06T05:06:52.183Z,79.40
2018-02-06T05:07:57.932Z,79.35
2018-02-06T05:09:03.416Z,79.43
2018-02-06T05:10:09.900Z,79.45
2018-02-06T05:11:15.620Z,79.40
2018-02-06T05:12:22.104Z,79.51
2018-02-06T05:13:27.853Z,79.49
2018-02-06T05:14:33.888Z,79.42
2018-02-06T05:15:39.639Z,79.39
2018-02-06T05:16:45.365Z,79.48
2018-02-06T05:17:51.090Z,79.49
2018-02-06T05:18:57.601Z,79.48
2018-02-06T05:20:03.391Z,79.57
2018-02-06T05:21:09.891Z,79.52
2018-02-06T05:22:15.608Z,79.47
2018-02-06T05:23:21.329Z,79.53
2018-02-06T05:24:27.839Z,79.52
2018-02-06T05:25:33.555Z,79.49
2018-02-06T05:26:39.288Z,79.38
2018-02-06T05:27:45.549Z,79.37
2018-02-06T05:28:51.264Z,79.33
2018-02-06T05:29:57.783Z,79.34
2018-02-06T05:31:03.515Z,79.46
2018-02-06T05:32:09.244Z,79.45
2018-02-06T05:33:14.952Z,79.42
2018-02-06T05:34:21.251Z,79.47
2018-02-06T05:35:27.207Z,79.38
2018-02-06T05:36:32.923Z,79.61
2018-02-06T05:37:38.884Z,79.49
2018-02-06T05:38:44.625Z,79.49
2018-02-06T05:39:50.019Z,79.42
2018-02-06T05:40:55.777Z,79.38
2018-02-06T05:42:01.500Z,79.30
2018-02-06T05:43:07.223Z,79.39
2018-02-06T05:44:12.953Z,79.47
2018-02-06T05:45:18.676Z,79.59
2018-02-06T05:46:24.419Z,79.47
2018-02-06T05:47:30.152Z,79.48
2018-02-06T05:48:35.862Z,79.53
2018-02-06T05:49:41.610Z,79.48
2018-02-06T05:50:47.318Z,79.51
2018-02-06T05:51:53.836Z,79.55
2018-02-06T05:52:59.560Z,79.45
2018-02-06T05:54:05.295Z,79.44
2018-02-06T05:55:11.011Z,79.48
2018-02-06T05:56:16.737Z,79.43
2018-02-06T05:57:23.256Z,79.58
2018-02-06T05:58:28.971Z,79.68
2018-02-06T05:59:34.701Z,79.68
2018-02-06T06:00:40.422Z,79.77
2018-02-06T06:01:46.908Z,79.78
2018-02-06T06:02:52.672Z,79.92
2018-02-06T06:03:58.426Z,79.95
2018-02-06T06:05:04.135Z,79.86
2018-02-06T06:06:09.915Z,79.83
2018-02-06T06:07:15.670Z,79.65
2018-02-06T06:08:22.208Z,79.69
2018-02-06T06:09:27.962Z,79.56
2018-02-06T06:10:33.692Z,79.49
2018-02-06T06:11:39.428Z,79.54
2018-02-06T06:12:45.157Z,79.53
2018-02-06T06:13:50.904Z,79.36
2018-02-06T06:14:56.620Z,79.23
2018-02-06T06:16:02.364Z,79.13
2018-02-06T06:17:08.080Z,79.12
2018-02-06T06:18:14.564Z,79.14
2018-02-06T06:19:21.096Z,79.14
2018-02-06T06:20:26.832Z,79.31
2018-02-06T06:21:33.323Z,79.36
2018-02-06T06:22:39.058Z,79.27
2018-02-06T06:23:44.799Z,79.21
2018-02-06T06:24:50.552Z,79.25
2018-02-06T06:25:56.281Z,79.28
2018-02-06T06:27:02.006Z,79.26
2018-02-06T06:28:07.744Z,79.32
2018-02-06T06:29:13.481Z,79.47
2018-02-06T06:30:20.028Z,79.41
2018-02-06T06:31:25.765Z,79.34
2018-02-06T06:32:31.504Z,79.25
2018-02-06T06:33:38.016Z,79.16
2018-02-06T06:34:43.735Z,79.21
2018-02-06T06:35:49.306Z,79.20
2018-02-06T06:36:55.042Z,79.22
2018-02-06T06:38:00.776Z,79.22
2018-02-06T06:39:05.621Z,79.25
2018-02-06T06:40:11.338Z,79.20
2018-02-06T06:41:17.102Z,79.18
2018-02-06T06:42:23.036Z,79.24
2018-02-06T06:43:28.759Z,79.39
2018-02-06T06:44:34.284Z,79.37
2018-02-06T06:45:40.015Z,79.25
2018-02-06T06:46:45.523Z,79.15
2018-02-06T06:47:51.256Z,79.08
2018-02-06T06:48:57.001Z,79.12
2018-02-06T06:50:02.496Z,79.14
2018-02-06T06:51:08.214Z,79.18
2018-02-06T06:52:14.388Z,79.13
2018-02-06T06:53:20.109Z,79.18
2018-02-06T06:54:25.820Z,79.24
2018-02-06T06:55:32.308Z,79.23
2018-02-06T06:56:38.030Z,79.29
2018-02-06T06:57:44.536Z,79.28
2018-02-06T06:58:50.252Z,79.34
2018-02-06T06:59:56.089Z,79.32
2018-02-06T07:01:01.809Z,79.21
2018-02-06T07:02:08.291Z,79.25
2018-02-06T07:03:14.053Z,79.29
2018-02-06T07:04:19.789Z,79.13
2018-02-06T07:05:25.510Z,78.99
2018-02-06T07:06:31.248Z,78.99
2018-02-06T07:07:36.985Z,79.09
2018-02-06T07:08:42.740Z,79.04
2018-02-06T07:09:48.469Z,78.92
2018-02-06T07:10:54.196Z,78.88
2018-02-06T07:12:00.693Z,78.92
2018-02-06T07:13:06.404Z,78.95
2018-02-06T07:14:12.921Z,79.08
2018-02-06T07:15:18.628Z,79.20
2018-02-06T07:16:24.376Z,79.24
2018-02-06T07:17:30.148Z,79.38
2018-02-06T07:18:36.090Z,79.33
2018-02-06T07:19:41.825Z,79.36
2018-02-06T07:20:47.549Z,79.40
2018-02-06T07:21:53.270Z,79.33
2018-02-06T07:22:58.992Z,79.25
2018-02-06T07:24:04.718Z,79.20
2018-02-06T07:25:10.479Z,79.15
2018-02-06T07:26:16.964Z,79.23
2018-02-06T07:27:22.675Z,79.24
2018-02-06T07:28:29.162Z,79.37
2018-02-06T07:29:34.898Z,79.31
2018-02-06T07:30:40.921Z,79.35
2018-02-06T07:31:47.229Z,79.34
2018-02-06T07:32:53.615Z,79.33
2018-02-06T07:34:00.220Z,79.34
2018-02-06T07:35:06.060Z,79.47
2018-02-06T07:36:11.837Z,79.35
2018-02-06T07:37:17.647Z,79.24
2018-02-06T07:38:23.395Z,79.24
2018-02-06T07:39:29.943Z,79.22
2018-02-06T07:40:35.668Z,79.13
2018-02-06T07:41:41.427Z,79.00
2018-02-06T07:42:47.141Z,78.97
2018-02-06T07:43:53.620Z,78.93
2018-02-06T07:44:59.342Z,78.85
2018-02-06T07:46:05.824Z,78.75
2018-02-06T07:47:11.567Z,78.67
2018-02-06T07:48:17.283Z,78.66
2018-02-06T07:49:23.771Z,78.63
2018-02-06T07:50:29.488Z,78.61
2018-02-06T07:51:35.980Z,78.48
2018-02-06T07:52:41.745Z,78.42
2018-02-06T07:53:47.280Z,78.56
2018-02-06T07:54:53.011Z,78.47
2018-02-06T07:55:58.795Z,78.49
2018-02-06T07:57:04.508Z,78.60
2018-02-06T07:58:10.263Z,78.82
2018-02-06T07:59:17.492Z,78.85
2018-02-06T08:00:23.574Z,78.86
2018-02-06T08:01:29.304Z,78.99
2018-02-06T08:02:35.080Z,78.98
2018-02-06T08:03:41.568Z,78.95
2018-02-06T08:04:47.369Z,78.90
2018-02-06T08:05:53.851Z,78.87
2018-02-06T08:06:59.582Z,78.82
2018-02-06T08:08:05.305Z,78.91
2018-02-06T08:09:11.825Z,78.90
2018-02-06T08:10:17.537Z,78.81
2018-02-06T08:11:24.026Z,78.74
2018-02-06T08:12:30.163Z,78.71
2018-02-06T08:13:36.312Z,78.58
2018-02-06T08:14:42.053Z,78.46
2018-02-06T08:15:47.772Z,78.49
2018-02-06T08:16:53.543Z,78.42
2018-02-06T08:17:59.253Z,78.27
2018-02-06T08:19:05.735Z,78.09
2018-02-06T08:20:12.253Z,77.90
2018-02-06T08:21:18.036Z,77.71
2018-02-06T08:22:23.751Z,77.73
2018-02-06T08:23:30.244Z,77.81
2018-02-06T08:24:36.167Z,77.82
2018-02-06T08:25:41.929Z,77.91
2018-02-06T08:26:47.648Z,77.88
2018-02-06T08:27:54.156Z,77.83
2018-02-06T08:28:59.876Z,77.75
2018-02-06T08:30:05.598Z,77.49
2018-02-06T08:31:11.370Z,77.46
2018-02-06T08:32:17.289Z,77.42
2018-02-06T08:33:23.009Z,77.21
2018-02-06T08:34:29.496Z,77.11
2018-02-06T08:35:36.307Z,76.83
2018-02-06T08:36:42.898Z,76.71
2018-02-06T08:37:49.408Z,76.27
2018-02-06T08:38:55.127Z,75.78
2018-02-06T08:40:00.864Z,75.01
2018-02-06T08:41:06.580Z,74.76
2018-02-06T08:42:13.111Z,74.09
2018-02-06T08:43:18.823Z,73.02
2018-02-06T08:44:24.546Z,71.51
2018-02-06T08:45:30.276Z,71.05
2018-02-06T08:46:35.994Z,69.79
2018-02-06T08:47:42.493Z,68.93
2018-02-06T08:48:48.367Z,66.92
2018-02-06T08:49:54.072Z,65.58
2018-02-06T08:50:59.783Z,65.53
2018-02-06T08:52:06.328Z,63.50
2018-02-06T08:53:12.082Z,63.16
2018-02-06T08:54:18.561Z,62.60
2018-02-06T08:55:24.289Z,62.24
2018-02-06T08:56:30.757Z,61.61
2018-02-06T08:57:36.712Z,60.24
2018-02-06T08:58:42.456Z,59.28
2018-02-06T08:59:48.162Z,58.24
2018-02-06T09:00:54.733Z,57.77
2018-02-06T09:02:01.224Z,57.94
2018-02-06T09:03:06.951Z,57.95
2018-02-06T09:04:12.681Z,55.74
2018-02-06T09:05:18.396Z,55.92
2018-02-06T09:06:24.990Z,55.96
2018-02-06T09:07:30.746Z,55.32
2018-02-06T09:08:36.716Z,54.65
2018-02-06T09:09:42.494Z,54.58
2018-02-06T09:10:48.194Z,54.54
2018-02-06T09:11:53.987Z,54.53
2018-02-06T09:13:01.276Z,52.98
2018-02-06T09:14:06.999Z,52.89
2018-02-06T09:15:13.516Z,52.30
2018-02-06T09:16:19.235Z,51.84
2018-02-06T09:17:25.004Z,51.22
2018-02-06T09:18:30.805Z,50.82
2018-02-06T09:19:36.549Z,50.65
2018-02-06T09:20:42.285Z,50.67
2018-02-06T09:21:48.024Z,49.80
2018-02-06T09:22:53.744Z,49.92
2018-02-06T09:24:00.240Z,49.80
2018-02-06T09:25:05.943Z,49.11
2018-02-06T09:26:12.489Z,49.90
2018-02-06T09:27:18.200Z,49.91
2018-02-06T09:28:23.926Z,49.55
2018-02-06T09:29:29.636Z,49.74
2018-02-06T09:30:35.585Z,49.43
2018-02-06T09:31:41.156Z,49.55
2018-02-06T09:32:46.869Z,48.98
2018-02-06T09:33:52.571Z,49.02
2018-02-06T09:34:58.281Z,49.19
2018-02-06T09:36:03.989Z,48.81
2018-02-06T09:37:09.733Z,48.40
2018-02-06T09:38:15.475Z,48.56
2018-02-06T09:39:21.209Z,47.62
2018-02-06T09:40:26.956Z,47.80
2018-02-06T09:41:32.655Z,47.68
2018-02-06T09:42:38.434Z,47.08
2018-02-06T09:43:44.153Z,47.58
2018-02-06T09:44:50.632Z,47.34
2018-02-06T09:45:56.348Z,47.45
2018-02-06T09:47:02.897Z,47.81
2018-02-06T09:48:08.734Z,47.57
2018-02-06T09:49:14.432Z,47.89
2018-02-06T09:50:20.155Z,47.97
2018-02-06T09:51:26.654Z,47.69
2018-02-06T09:52:32.575Z,47.49
2018-02-06T09:53:38.306Z,47.54
2018-02-06T09:54:44.020Z,47.63
2018-02-06T09:55:50.559Z,47.74
2018-02-06T09:56:56.256Z,47.65
2018-02-06T09:58:01.782Z,48.08
2018-02-06T09:59:07.517Z,48.20
2018-02-06T10:00:13.226Z,48.43
2018-02-06T10:01:19.118Z,48.17
2018-02-06T10:02:24.819Z,47.96
2018-02-06T10:03:31.330Z,47.81
2018-02-06T10:04:37.045Z,47.71
2018-02-06T10:05:42.793Z,47.50
2018-02-06T10:06:48.529Z,47.71
2018-02-06T10:07:54.377Z,48.08
2018-02-06T10:09:00.067Z,47.88
2018-02-06T10:10:05.619Z,47.73
2018-02-06T10:11:12.087Z,47.50
2018-02-06T10:12:18.563Z,47.36
2018-02-06T10:13:24.415Z,47.62
2018-02-06T10:14:30.149Z,47.86
2018-02-06T10:15:35.881Z,47.57
2018-02-06T10:16:41.588Z,47.34
2018-02-06T10:17:47.323Z,47.26
2018-02-06T10:18:53.029Z,47.38
2018-02-06T10:19:58.752Z,46.84
2018-02-06T10:21:04.475Z,46.62
2018-02-06T10:22:10.953Z,47.11
2018-02-06T10:23:16.666Z,47.35
2018-02-06T10:24:23.153Z,47.19
2018-02-06T10:25:28.897Z,47.14
2018-02-06T10:26:34.619Z,46.96
2018-02-06T10:27:41.100Z,46.89
2018-02-06T10:28:46.835Z,47.18
2018-02-06T10:29:52.547Z,47.46
2018-02-06T10:30:59.033Z,47.56
2018-02-06T10:32:04.780Z,47.44
2018-02-06T10:33:10.494Z,47.40
2018-02-06T10:34:16.979Z,47.41
2018-02-06T10:35:22.359Z,47.76
2018-02-06T10:36:28.276Z,48.03
2018-02-06T10:37:34.002Z,48.46
2018-02-06T10:38:39.531Z,49.23
2018-02-06T10:39:45.261Z,49.47
2018-02-06T10:40:51.013Z,50.35
2018-02-06T10:41:56.752Z,50.97
2018-02-06T10:43:02.839Z,51.32
2018-02-06T10:44:08.552Z,51.52
2018-02-06T10:45:14.264Z,52.44
2018-02-06T10:46:20.744Z,53.02
2018-02-06T10:47:26.495Z,53.36
2018-02-06T10:48:32.243Z,53.64
2018-02-06T10:49:37.954Z,53.86
2018-02-06T10:50:43.705Z,54.00
2018-02-06T10:51:49.108Z,53.97
2018-02-06T10:52:55.620Z,53.73
2018-02-06T10:54:01.387Z,53.84
2018-02-06T10:55:07.102Z,53.74
2018-02-06T10:56:12.821Z,53.61
2018-02-06T10:57:18.545Z,53.47
2018-02-06T10:58:25.028Z,53.30
2018-02-06T10:59:30.762Z,53.35
2018-02-06T11:00:36.473Z,52.96
2018-02-06T11:01:42.975Z,53.11
2018-02-06T11:02:48.679Z,53.48
2018-02-06T11:03:55.166Z,53.39
2018-02-06T11:05:00.906Z,53.31
2018-02-06T11:06:06.615Z,53.18
2018-02-06T11:07:13.083Z,53.00
2018-02-06T11:08:18.838Z,52.79
2018-02-06T11:09:24.556Z,53.14
2018-02-06T11:10:30.308Z,53.42
2018-02-06T11:11:36.773Z,53.57
2018-02-06T11:12:43.360Z,54.00
2018-02-06T11:13:48.743Z,54.22
2018-02-06T11:14:55.215Z,54.35
2018-02-06T11:16:00.956Z,54.07
2018-02-06T11:17:07.439Z,54.22
2018-02-06T11:18:12.965Z,54.23
2018-02-06T11:19:18.667Z,54.38
2018-02-06T11:20:25.168Z,54.59
2018-02-06T11:21:30.889Z,54.74
2018-02-06T11:22:37.360Z,54.95
2018-02-06T11:23:43.151Z,55.22
2018-02-06T11:24:48.855Z,55.24
2018-02-06T11:25:54.573Z,55.24
2018-02-06T11:27:01.085Z,55.39
2018-02-06T11:28:06.794Z,55.58
2018-02-06T11:29:12.511Z,55.78
2018-02-06T11:30:18.984Z,56.19
2018-02-06T11:31:24.687Z,56.21
2018-02-06T11:32:30.433Z,56.17
2018-02-06T11:33:36.143Z,56.21
2018-02-06T11:34:41.844Z,55.84
2018-02-06T11:35:47.555Z,55.76
2018-02-06T11:36:54.033Z,55.53
2018-02-06T11:37:59.763Z,55.50
2018-02-06T11:39:05.378Z,55.32
2018-02-06T11:40:11.080Z,55.49
2018-02-06T11:41:16.818Z,55.34
2018-02-06T11:42:22.523Z,54.92
2018-02-06T11:43:29.051Z,54.99
2018-02-06T11:44:34.794Z,55.21
2018-02-06T11:45:40.682Z,55.22
2018-02-06T11:46:47.146Z,55.36
2018-02-06T11:47:52.888Z,55.64
2018-02-06T11:48:58.634Z,55.56
2018-02-06T11:50:04.560Z,55.79
2018-02-06T11:51:10.531Z,56.08
2018-02-06T11:52:16.240Z,56.21
2018-02-06T11:53:23.519Z,56.61
2018-02-06T11:54:30.011Z,56.73
2018-02-06T11:55:35.832Z,57.13
2018-02-06T11:56:41.578Z,57.52
2018-02-06T11:57:47.586Z,57.65
2018-02-06T11:58:53.340Z,57.50
2018-02-06T11:59:59.936Z,57.21
2018-02-06T12:01:05.647Z,56.68
2018-02-06T12:02:12.138Z,56.58
2018-02-06T12:03:17.976Z,56.75
2018-02-06T12:04:23.999Z,57.07
2018-02-06T12:05:30.527Z,57.53
2018-02-06T12:06:36.236Z,57.38
2018-02-06T12:07:42.068Z,57.46
2018-02-06T12:08:47.967Z,57.29
2018-02-06T12:09:53.766Z,57.14
2018-02-06T12:11:00.391Z,57.17
2018-02-06T12:12:06.273Z,56.96
2018-02-06T12:13:12.086Z,57.20
2018-02-06T12:14:18.876Z,57.51
2018-02-06T12:15:24.816Z,57.92
2018-02-06T12:16:31.653Z,57.92
2018-02-06T12:17:38.248Z,57.75
2018-02-06T12:18:43.973Z,57.13
2018-02-06T12:19:49.515Z,56.68
2018-02-06T12:20:56.245Z,56.73
2018-02-06T12:22:02.043Z,56.84
2018-02-06T12:23:07.955Z,56.85
2018-02-06T12:24:14.469Z,56.91
2018-02-06T12:25:20.305Z,56.99
2018-02-06T12:26:26.094Z,56.92
2018-02-06T12:27:31.891Z,56.88
2018-02-06T12:28:37.827Z,56.70
2018-02-06T12:29:43.588Z,56.55
2018-02-06T12:30:49.309Z,56.51
2018-02-06T12:31:55.152Z,56.54
2018-02-06T12:33:01.192Z,56.35
2018-02-06T12:34:06.911Z,56.39
2018-02-06T12:35:13.385Z,56.27
2018-02-06T12:36:19.238Z,56.29
2018-02-06T12:37:25.091Z,56.49
2018-02-06T12:38:30.888Z,56.83
2018-02-06T12:39:37.045Z,57.09
2018-02-06T12:40:42.764Z,57.19
2018-02-06T12:41:48.588Z,57.18
2018-02-06T12:42:55.022Z,56.96
2018-02-06T12:44:01.052Z,56.96
2018-02-06T12:45:07.773Z,57.04
2018-02-06T12:46:13.641Z,56.73
2018-02-06T12:47:19.419Z,56.63
2018-02-06T12:48:25.772Z,56.29
2018-02-06T12:49:31.926Z,55.73
2018-02-06T12:50:37.965Z,55.94
2018-02-06T12:51:44.533Z,56.14
2018-02-06T12:52:49.980Z,56.42
2018-02-06T12:53:56.015Z,56.59
2018-02-06T12:55:01.759Z,56.53
2018-02-06T12:56:07.613Z,56.37
2018-02-06T12:57:13.342Z,56.41
2018-02-06T12:58:19.094Z,56.55
2018-02-06T12:59:25.952Z,56.46
2018-02-06T13:00:32.547Z,56.37
2018-02-06T13:01:38.417Z,56.29
2018-02-06T13:02:45.083Z,56.30
2018-02-06T13:03:50.867Z,56.28
2018-02-06T13:04:56.877Z,56.38
2018-02-06T13:06:03.384Z,56.28
2018-02-06T13:07:09.229Z,56.35
2018-02-06T13:08:15.157Z,56.31
2018-02-06T13:09:20.659Z,56.11
2018-02-06T13:10:27.256Z,56.13
2018-02-06T13:11:33.005Z,55.81
2018-02-06T13:12:38.714Z,55.78
2018-02-06T13:13:47.413Z,55.47
2018-02-06T13:14:53.744Z,55.19
2018-02-06T13:15:59.706Z,55.35
2018-02-06T13:17:06.531Z,55.50
2018-02-06T13:18:13.424Z,55.58
2018-02-06T13:19:19.174Z,55.59
2018-02-06T13:20:25.683Z,55.64
2018-02-06T13:21:31.805Z,55.73
2018-02-06T13:22:38.493Z,55.85
2018-02-06T13:23:45.095Z,55.75
2018-02-06T13:24:51.424Z,55.30
2018-02-06T13:25:57.172Z,54.96
2018-02-06T13:27:02.968Z,55.11
2018-02-06T13:28:08.938Z,54.83
2018-02-06T13:29:14.743Z,54.81
2018-02-06T13:30:21.598Z,54.83
2018-02-06T13:31:28.109Z,54.73
2018-02-06T13:32:34.259Z,54.81
2018-02-06T13:33:41.015Z,54.82
2018-02-06T13:34:46.740Z,54.69
2018-02-06T13:35:53.244Z,54.68
2018-02-06T13:37:00.961Z,54.61
2018-02-06T13:38:07.165Z,54.70
2018-02-06T13:39:13.234Z,54.74
2018-02-06T13:40:20.751Z,54.84
2018-02-06T13:41:27.668Z,54.96
2018-02-06T13:42:33.435Z,55.04
2018-02-06T13:43:39.201Z,55.29
2018-02-06T13:44:45.732Z,55.23
2018-02-06T13:45:51.738Z,54.88
2018-02-06T13:46:58.209Z,54.89
2018-02-06T13:48:03.995Z,54.87
2018-02-06T13:49:09.997Z,54.82
2018-02-06T13:50:15.748Z,54.89
2018-02-06T13:51:22.076Z,54.96
2018-02-06T13:52:29.161Z,54.88
2018-02-06T13:53:36.105Z,54.89
2018-02-06T13:54:42.904Z,54.81
2018-02-06T13:55:48.745Z,54.77
2018-02-06T13:56:54.457Z,54.72
2018-02-06T13:58:01.150Z,54.12
2018-02-06T13:59:06.857Z,54.17
2018-02-06T14:00:13.345Z,54.17
2018-02-06T14:01:18.892Z,54.31
2018-02-06T14:02:24.601Z,54.55
2018-02-06T14:03:31.114Z,54.71
2018-02-06T14:04:36.890Z,54.85
2018-02-06T14:05:42.605Z,54.47
2018-02-06T14:06:48.361Z,54.76
2018-02-06T14:07:54.093Z,54.65
2018-02-06T14:08:59.845Z,54.48
2018-02-06T14:10:05.560Z,54.31
2018-02-06T14:11:11.285Z,54.37
2018-02-06T14:12:17.077Z,54.45
2018-02-06T14:13:22.822Z,54.36
2018-02-06T14:14:28.545Z,54.41
2018-02-06T14:15:34.407Z,54.58
2018-02-06T14:16:41.069Z,54.57
2018-02-06T14:17:46.802Z,54.42
2018-02-06T14:18:52.669Z,54.38
2018-02-06T14:19:59.160Z,54.35
2018-02-06T14:21:05.782Z,54.37
2018-02-06T14:22:12.996Z,54.50
2018-02-06T14:23:18.742Z,54.31
2018-02-06T14:24:24.450Z,54.47
2018-02-06T14:25:31.600Z,54.76
2018-02-06T14:26:37.322Z,54.92
2018-02-06T14:27:43.104Z,54.83
2018-02-06T14:28:49.890Z,54.79
2018-02-06T14:29:55.668Z,54.77
2018-02-06T14:31:01.411Z,54.85
2018-02-06T14:32:07.165Z,54.92
2018-02-06T14:33:12.899Z,54.73
2018-02-06T14:34:18.656Z,54.82
2018-02-06T14:35:25.155Z,54.89
2018-02-06T14:36:30.910Z,54.91
2018-02-06T14:37:36.645Z,55.00
2018-02-06T14:38:42.105Z,55.06
2018-02-06T14:39:47.931Z,55.46
2018-02-06T14:40:53.700Z,55.98
2018-02-06T14:42:00.563Z,56.23
2018-02-06T14:43:06.285Z,56.37
2018-02-06T14:44:12.729Z,56.58
2018-02-06T14:45:18.464Z,56.59
2018-02-06T14:46:24.410Z,56.90
2018-02-06T14:47:30.166Z,56.96
2018-02-06T14:48:35.993Z,57.08
2018-02-06T14:49:41.842Z,57.20
2018-02-06T14:50:47.600Z,57.30
2018-02-06T14:51:53.364Z,57.52
2018-02-06T14:52:59.922Z,57.77
2018-02-06T14:54:05.636Z,57.99
2018-02-06T14:55:11.450Z,58.13
2018-02-06T14:56:17.295Z,58.27
2018-02-06T14:57:23.128Z,58.54
2018-02-06T14:58:29.888Z,58.53
2018-02-06T14:59:36.479Z,58.71
2018-02-06T15:00:41.915Z,58.99
2018-02-06T15:01:48.638Z,59.36
2018-02-06T15:02:56.234Z,59.62
2018-02-06T15:04:02.532Z,59.64
2018-02-06T15:05:08.454Z,59.63
2018-02-06T15:06:15.127Z,59.76
2018-02-06T15:07:20.879Z,59.83
2018-02-06T15:08:26.809Z,60.00
2018-02-06T15:09:32.639Z,60.00
2018-02-06T15:10:40.088Z,60.43
2018-02-06T15:11:45.875Z,60.54
2018-02-06T15:12:52.819Z,60.88
2018-02-06T15:13:59.354Z,60.92
2018-02-06T15:15:04.990Z,61.03
2018-02-06T15:16:10.949Z,61.15
2018-02-06T15:17:18.369Z,61.28
2018-02-06T15:18:25.490Z,61.35
2018-02-06T15:19:31.510Z,61.24
2018-02-06T15:20:37.409Z,61.32
2018-02-06T15:21:43.763Z,61.31
2018-02-06T15:22:50.261Z,61.20
2018-02-06T15:23:56.981Z,61.14
2018-02-06T15:25:03.778Z,61.18
2018-02-06T15:26:10.136Z,61.19
2018-02-06T15:27:16.809Z,61.13
2018-02-06T15:28:22.805Z,61.03
2018-02-06T15:29:28.602Z,61.03
2018-02-06T15:30:35.351Z,61.19
2018-02-06T15:31:41.296Z,61.15
2018-02-06T15:32:47.213Z,61.02
2018-02-06T15:33:53.898Z,61.16
2018-02-06T15:35:04.626Z,61.22
2018-02-06T15:36:12.180Z,61.37
2018-02-06T15:37:19.963Z,61.50
2018-02-06T15:38:26.699Z,61.55
2018-02-06T15:39:32.849Z,61.76
2018-02-06T15:40:39.413Z,61.60
2018-02-06T15:41:48.198Z,61.47
2018-02-06T15:42:55.527Z,61.59
2018-02-06T15:44:01.450Z,61.55
2018-02-06T15:45:07.281Z,61.60
2018-02-06T15:46:12.931Z,61.81
2018-02-06T15:47:19.536Z,61.95
2018-02-06T15:48:25.305Z,62.09
2018-02-06T15:49:32.828Z,62.15
2018-02-06T15:50:38.585Z,62.21
2018-02-06T15:51:44.336Z,62.32
2018-02-06T15:52:50.047Z,62.17
2018-02-06T15:53:55.915Z,62.10
2018-02-06T15:55:02.615Z,62.05
2018-02-06T15:56:08.320Z,61.99
2018-02-06T15:57:14.069Z,62.18
2018-02-06T15:58:20.594Z,62.18
2018-02-06T15:59:26.294Z,62.54
2018-02-06T16:00:33.792Z,62.50
2018-02-06T16:01:40.112Z,62.56
2018-02-06T16:02:46.017Z,62.98
2018-02-06T16:03:51.837Z,63.49
2018-02-06T16:04:58.618Z,63.54
2018-02-06T16:06:05.074Z,63.55
2018-02-06T16:07:11.248Z,63.78